CheckWX is a tool to help pilots better visualize weather data.  It is not intended as a substitute for an official pre-flight weather briefing.

10:35:11 UTC

W13 METAR
Eagle's Nest Airport
Waynesboro, Virginia, USA
Current

20 mins ago

KW13 221015Z AUTO 00000KT 7SM CLR 15/15 A3022 RMK AO1 T01530152
Observed
Sep-22 @ 10:15 UTC
Visibility
7 SM
Flight Rules
VFR
Cloud Levels
  • Clear skies
Temperature
15°C / 59°F
Dewpoint
15°C / 59°F
Humidity
100%
Altimeter
30.22" Hg
Pressure
1023.42 hPa
Previous

40 mins ago

KW13 220955Z AUTO 00000KT 5SM CLR 16/16 A3022 RMK AO1 T01580157
Observed
Sep-22 @ 09:55 UTC
Visibility
5 SM
Flight Rules
MVFR
Cloud Levels
  • Clear skies
Temperature
16°C / 61°F
Dewpoint
16°C / 61°F
Humidity
100%
Altimeter
30.22" Hg
Pressure
1023.42 hPa
Previous

60 mins ago

KW13 220935Z AUTO 00000KT 7SM CLR 16/16 A3021 RMK AO1 T01620162
Observed
Sep-22 @ 09:35 UTC
Visibility
7 SM
Flight Rules
VFR
Cloud Levels
  • Clear skies
Temperature
16°C / 61°F
Dewpoint
16°C / 61°F
Humidity
100%
Altimeter
30.21" Hg
Pressure
1023.02 hPa